createdAt,value
2023-03-17T00:02:25.818Z,100.00
2023-03-17T00:04:54.088Z,100.00
2023-03-17T00:07:22.558Z,100.00
2023-03-17T00:09:50.693Z,100.00
2023-03-17T00:12:22.534Z,100.00
2023-03-17T00:15:20.568Z,100.00
2023-03-17T00:18:05.411Z,100.00
2023-03-17T00:20:52.263Z,100.00
2023-03-17T00:23:28.290Z,100.00
2023-03-17T00:26:09.552Z,100.00
2023-03-17T00:28:40.326Z,100.00
2023-03-17T00:31:15.771Z,100.00
2023-03-17T00:33:45.179Z,100.00
2023-03-17T00:36:16.804Z,100.00
2023-03-17T00:38:44.922Z,100.00
2023-03-17T00:41:13.471Z,100.00
2023-03-17T00:43:43.064Z,100.00
2023-03-17T00:46:19.180Z,100.00
2023-03-17T00:48:49.141Z,100.00
2023-03-17T00:51:17.738Z,100.00
2023-03-17T00:53:46.028Z,100.00
2023-03-17T00:56:16.332Z,100.00
2023-03-17T00:58:46.660Z,100.00
2023-03-17T01:01:15.228Z,100.00
2023-03-17T01:03:46.372Z,100.00
2023-03-17T01:06:21.093Z,100.00
2023-03-17T01:08:50.314Z,100.00
2023-03-17T01:11:21.547Z,100.00
2023-03-17T01:13:51.048Z,100.00
2023-03-17T01:16:18.974Z,100.00
2023-03-17T01:18:46.949Z,100.00
2023-03-17T01:21:15.440Z,100.00
2023-03-17T01:23:43.676Z,100.00
2023-03-17T01:26:12.730Z,100.00
2023-03-17T01:28:40.611Z,100.00
2023-03-17T01:31:10.490Z,100.00
2023-03-17T01:33:38.388Z,100.00
2023-03-17T01:36:06.839Z,100.00
2023-03-17T01:38:35.490Z,100.00
2023-03-17T01:41:03.416Z,100.00
2023-03-17T01:43:31.869Z,100.00
2023-03-17T01:46:21.916Z,100.00
2023-03-17T01:48:56.784Z,100.00
2023-03-17T01:51:31.890Z,100.00
2023-03-17T01:54:01.351Z,100.00
2023-03-17T01:56:30.276Z,100.00
2023-03-17T01:59:00.757Z,100.00
2023-03-17T02:01:35.434Z,100.00
2023-03-17T02:04:04.591Z,100.00
2023-03-17T02:06:33.502Z,100.00
2023-03-17T02:09:02.000Z,100.00
2023-03-17T02:11:30.692Z,100.00
2023-03-17T02:14:21.822Z,100.00
2023-03-17T02:16:51.179Z,100.00
2023-03-17T02:19:21.077Z,100.00
2023-03-17T02:21:51.978Z,100.00
2023-03-17T02:24:30.018Z,100.00
2023-03-17T02:27:02.386Z,100.00
2023-03-17T02:29:33.694Z,100.00
2023-03-17T02:32:01.768Z,100.00
2023-03-17T02:34:29.769Z,100.00
2023-03-17T02:36:59.528Z,100.00
2023-03-17T02:39:27.707Z,100.00
2023-03-17T02:41:55.935Z,100.00
2023-03-17T02:44:23.784Z,100.00
2023-03-17T02:46:51.920Z,100.00
2023-03-17T02:49:20.724Z,100.00
2023-03-17T02:51:48.640Z,100.00
2023-03-17T02:54:18.264Z,100.00
2023-03-17T02:56:46.532Z,100.00
2023-03-17T02:59:14.371Z,100.00
2023-03-17T03:01:42.214Z,100.00
2023-03-17T03:04:10.150Z,100.00
2023-03-17T03:06:39.849Z,100.00
2023-03-17T03:09:07.797Z,100.00
2023-03-17T03:11:37.017Z,100.00
2023-03-17T03:14:04.971Z,100.00
2023-03-17T03:19:34.678Z,100.00
2023-03-17T03:22:02.868Z,100.00
2023-03-17T03:24:30.756Z,100.00
2023-03-17T03:26:59.956Z,100.00
2023-03-17T03:29:28.113Z,100.00
2023-03-17T03:31:56.260Z,100.00
2023-03-17T03:34:24.120Z,100.00
2023-03-17T03:36:51.934Z,100.00
2023-03-17T03:39:19.812Z,100.00
2023-03-17T03:41:47.727Z,100.00
2023-03-17T03:44:17.023Z,100.00
2023-03-17T03:46:44.938Z,100.00
2023-03-17T03:49:13.369Z,100.00
2023-03-17T03:51:41.590Z,100.00
2023-03-17T03:54:09.503Z,100.00
2023-03-17T03:56:51.613Z,100.00
2023-03-17T03:59:29.537Z,100.00
2023-03-17T04:01:57.513Z,100.00
2023-03-17T04:04:26.429Z,100.00
2023-03-17T04:06:56.498Z,100.00
2023-03-17T04:09:28.895Z,100.00
2023-03-17T04:11:56.793Z,100.00
2023-03-17T04:14:26.070Z,100.00
2023-03-17T04:16:54.163Z,100.00
2023-03-17T04:19:23.573Z,100.00
2023-03-17T04:21:53.729Z,100.00
2023-03-17T04:24:23.017Z,100.00
2023-03-17T04:26:51.991Z,100.00
2023-03-17T04:29:20.174Z,100.00
2023-03-17T04:31:49.380Z,100.00
2023-03-17T04:34:19.497Z,100.00
2023-03-17T04:36:48.882Z,100.00
2023-03-17T04:39:19.541Z,100.00
2023-03-17T04:42:01.733Z,100.00
2023-03-17T04:44:36.606Z,100.00
2023-03-17T04:47:25.946Z,100.00
2023-03-17T04:49:58.936Z,100.00
2023-03-17T04:52:42.891Z,100.00
2023-03-17T04:55:20.381Z,100.00
2023-03-17T05:00:41.741Z,100.00
2023-03-17T05:03:26.137Z,100.00
2023-03-17T05:05:55.588Z,100.00
2023-03-17T05:08:23.494Z,100.00
2023-03-17T05:10:51.792Z,100.00
2023-03-17T05:13:19.887Z,100.00
2023-03-17T05:15:50.788Z,100.00
2023-03-17T05:18:23.840Z,100.00
2023-03-17T05:20:52.422Z,100.00
2023-03-17T05:23:22.788Z,100.00
2023-03-17T05:25:51.357Z,100.00
2023-03-17T05:28:19.444Z,100.00
2023-03-17T05:30:48.086Z,100.00
2023-03-17T05:33:16.453Z,100.00
2023-03-17T05:35:46.531Z,100.00
2023-03-17T05:38:18.296Z,100.00
2023-03-17T05:40:49.481Z,100.00
2023-03-17T05:43:17.521Z,100.00
2023-03-17T05:45:45.627Z,100.00
2023-03-17T05:48:13.552Z,100.00
2023-03-17T05:50:42.602Z,100.00
2023-03-17T05:53:12.273Z,100.00
2023-03-17T05:55:40.617Z,100.00
2023-03-17T05:58:09.575Z,100.00
2023-03-17T06:00:38.137Z,100.00
2023-03-17T06:03:06.489Z,100.00
2023-03-17T06:05:34.952Z,100.00
2023-03-17T06:08:06.775Z,100.00
2023-03-17T06:10:36.399Z,100.00
2023-03-17T06:13:05.153Z,100.00
2023-03-17T06:15:34.432Z,100.00
2023-03-17T06:18:02.509Z,100.00
2023-03-17T06:20:31.283Z,100.00
2023-03-17T06:23:05.617Z,100.00
2023-03-17T06:25:35.899Z,100.00
2023-03-17T06:28:04.342Z,100.00
2023-03-17T06:30:33.731Z,100.00
2023-03-17T06:33:02.127Z,100.00
2023-03-17T06:35:30.737Z,100.00
2023-03-17T06:37:59.037Z,100.00
2023-03-17T06:40:26.980Z,100.00
2023-03-17T06:42:56.627Z,100.00
2023-03-17T06:45:24.706Z,100.00
2023-03-17T06:47:52.603Z,100.00
2023-03-17T06:50:21.012Z,100.00
2023-03-17T06:52:48.902Z,100.00
2023-03-17T06:55:17.565Z,100.00
2023-03-17T06:57:45.554Z,100.00
2023-03-17T07:00:16.046Z,100.00
2023-03-17T07:02:44.222Z,100.00
2023-03-17T07:05:13.942Z,100.00
2023-03-17T07:07:43.638Z,100.00
2023-03-17T07:10:13.828Z,100.00
2023-03-17T07:12:42.672Z,100.00
2023-03-17T07:15:13.566Z,100.00
2023-03-17T07:17:42.998Z,100.00
2023-03-17T07:20:16.089Z,100.00
2023-03-17T07:22:44.087Z,100.00
2023-03-17T07:25:14.284Z,100.00
2023-03-17T07:27:42.312Z,100.00
2023-03-17T07:30:15.209Z,100.00
2023-03-17T07:32:44.783Z,100.00
2023-03-17T07:35:16.298Z,100.00
2023-03-17T07:37:44.642Z,100.00
2023-03-17T07:40:14.930Z,100.00
2023-03-17T07:42:43.570Z,100.00
2023-03-17T07:45:12.998Z,100.00
2023-03-17T07:47:43.819Z,100.00
2023-03-17T07:50:18.587Z,100.00
2023-03-17T07:52:48.359Z,100.00
2023-03-17T07:55:17.571Z,100.00
2023-03-17T07:57:47.906Z,100.00
2023-03-17T08:00:18.836Z,100.00
2023-03-17T08:03:09.472Z,100.00
2023-03-17T08:05:44.758Z,100.00
2023-03-17T08:08:14.100Z,100.00
2023-03-17T08:10:42.268Z,100.00
2023-03-17T08:13:15.187Z,100.00
2023-03-17T08:15:43.924Z,100.00
2023-03-17T08:18:14.441Z,100.00
2023-03-17T08:20:47.343Z,100.00
2023-03-17T08:23:17.624Z,100.00
2023-03-17T08:25:48.927Z,100.00
2023-03-17T08:28:18.219Z,100.00
2023-03-17T08:30:53.115Z,100.00
2023-03-17T08:33:22.728Z,100.00
2023-03-17T08:35:53.630Z,100.00
2023-03-17T08:38:24.267Z,100.00
2023-03-17T08:40:52.909Z,100.00
2023-03-17T08:43:20.858Z,100.00
2023-03-17T08:45:48.903Z,100.00
2023-03-17T08:48:19.079Z,100.00
2023-03-17T08:50:48.939Z,100.00
2023-03-17T08:53:22.051Z,100.00
2023-03-17T08:55:58.045Z,100.00
2023-03-17T08:58:27.501Z,100.00
2023-03-17T09:00:59.949Z,100.00
2023-03-17T09:03:28.164Z,100.00
2023-03-17T09:05:59.172Z,100.00
2023-03-17T09:08:33.960Z,100.00
2023-03-17T09:11:05.682Z,100.00
2023-03-17T09:13:34.172Z,100.00
2023-03-17T09:16:03.150Z,100.00
2023-03-17T09:18:39.099Z,100.00
2023-03-17T09:21:08.719Z,100.00
2023-03-17T09:23:38.289Z,100.00
2023-03-17T09:26:06.738Z,100.00
2023-03-17T09:28:35.427Z,100.00
2023-03-17T09:31:11.971Z,100.00
2023-03-17T09:33:41.653Z,100.00
2023-03-17T09:36:12.153Z,100.00
2023-03-17T09:38:41.482Z,100.00
2023-03-17T09:41:40.628Z,100.00
2023-03-17T09:44:16.346Z,100.00
2023-03-17T09:46:55.906Z,100.00
2023-03-17T09:49:29.206Z,100.00
2023-03-17T09:52:01.970Z,100.00
2023-03-17T09:54:35.999Z,100.00
2023-03-17T09:57:14.980Z,100.00
2023-03-17T09:59:45.931Z,100.00
2023-03-17T10:02:22.657Z,100.00
2023-03-17T10:04:54.762Z,100.00
2023-03-17T10:07:28.832Z,100.00
2023-03-17T10:10:02.989Z,100.00
2023-03-17T10:12:45.540Z,100.00
2023-03-17T10:15:22.463Z,100.00
2023-03-17T10:17:52.374Z,100.00
2023-03-17T10:20:27.308Z,100.00
2023-03-17T10:22:59.453Z,100.00
2023-03-17T10:25:31.942Z,100.00
2023-03-17T10:28:16.631Z,100.00
2023-03-17T10:30:52.614Z,100.00
2023-03-17T10:33:22.427Z,100.00
2023-03-17T10:35:50.692Z,100.00
2023-03-17T10:38:21.204Z,100.00
2023-03-17T10:41:02.510Z,100.00
2023-03-17T10:43:43.453Z,100.00
2023-03-17T10:46:22.498Z,100.00
2023-03-17T10:49:04.998Z,100.00
2023-03-17T10:51:39.146Z,100.00
2023-03-17T10:54:13.951Z,100.00
2023-03-17T10:56:47.270Z,100.00
2023-03-17T10:59:24.180Z,100.00
2023-03-17T11:01:59.312Z,100.00
2023-03-17T11:04:31.394Z,100.00
2023-03-17T11:07:01.979Z,100.00
2023-03-17T11:09:38.236Z,100.00
2023-03-17T11:12:20.312Z,100.00
2023-03-17T11:14:51.600Z,100.00
2023-03-17T11:17:28.149Z,100.00
2023-03-17T11:20:05.546Z,100.00
2023-03-17T11:22:40.647Z,100.00
2023-03-17T11:28:04.760Z,100.00
2023-03-17T11:30:37.334Z,100.00
2023-03-17T11:33:14.820Z,100.00
2023-03-17T11:35:51.527Z,100.00
2023-03-17T11:38:26.269Z,100.00
2023-03-17T11:41:17.129Z,95.33
2023-03-17T11:44:01.625Z,90.68
2023-03-17T11:46:35.711Z,86.75
2023-03-17T11:49:14.855Z,82.54
2023-03-17T11:51:56.710Z,78.87
2023-03-17T11:54:34.384Z,73.57
2023-03-17T11:57:07.588Z,70.74
2023-03-17T11:59:43.046Z,73.61
2023-03-17T12:02:21.569Z,67.59
2023-03-17T12:04:55.688Z,68.97
2023-03-17T12:07:27.276Z,67.54
2023-03-17T12:10:17.379Z,65.25
2023-03-17T12:12:51.206Z,65.08
2023-03-17T12:15:28.145Z,64.29
2023-03-17T12:18:00.917Z,62.64
2023-03-17T12:20:34.997Z,63.54
2023-03-17T12:23:07.847Z,64.29
2023-03-17T12:25:42.601Z,63.20
2023-03-17T12:28:16.902Z,61.62
2023-03-17T12:30:51.028Z,61.73
2023-03-17T12:33:25.802Z,59.71
2023-03-17T12:35:53.829Z,60.64
2023-03-17T12:38:31.436Z,63.17
2023-03-17T12:41:19.128Z,62.80
2023-03-17T12:44:02.345Z,61.63
2023-03-17T12:47:08.491Z,60.87
2023-03-17T12:50:07.295Z,61.11
2023-03-17T12:52:50.382Z,60.92
2023-03-17T12:55:19.670Z,61.09
2023-03-17T12:57:58.834Z,58.75
2023-03-17T13:00:29.714Z,58.80
2023-03-17T13:03:18.732Z,57.31
2023-03-17T13:05:48.776Z,56.01
2023-03-17T13:08:25.838Z,54.68
2023-03-17T13:11:18.642Z,53.87
2023-03-17T13:13:59.113Z,53.65
2023-03-17T13:16:30.421Z,54.16
2023-03-17T13:19:22.593Z,56.95
2023-03-17T13:21:53.302Z,57.03
2023-03-17T13:24:47.002Z,57.77
2023-03-17T13:27:16.033Z,59.78
2023-03-17T13:29:48.767Z,59.67
2023-03-17T13:32:42.883Z,60.61
2023-03-17T13:35:38.982Z,59.36
2023-03-17T13:38:46.741Z,59.98
2023-03-17T13:41:30.296Z,61.86
2023-03-17T13:44:12.412Z,63.24
2023-03-17T13:46:44.150Z,62.23
2023-03-17T13:49:22.602Z,63.42
2023-03-17T13:52:00.276Z,64.69
2023-03-17T13:54:34.280Z,63.80
2023-03-17T13:57:24.102Z,64.78
2023-03-17T13:59:58.466Z,64.56
2023-03-17T14:02:30.582Z,66.05
2023-03-17T14:05:01.832Z,67.06
2023-03-17T14:07:38.104Z,69.33
2023-03-17T14:10:08.080Z,69.83
2023-03-17T14:12:46.111Z,69.31
2023-03-17T14:15:21.588Z,67.51
2023-03-17T14:17:54.762Z,68.01
2023-03-17T14:20:24.897Z,67.86
2023-03-17T14:23:00.047Z,68.60
2023-03-17T14:25:33.697Z,70.20
2023-03-17T14:28:02.028Z,71.29
2023-03-17T14:30:31.680Z,72.56
2023-03-17T14:33:04.625Z,71.53
2023-03-17T14:35:34.670Z,72.27
2023-03-17T14:38:04.264Z,71.22
2023-03-17T14:40:36.894Z,71.89
2023-03-17T14:43:05.390Z,71.67
2023-03-17T14:45:48.652Z,68.60
2023-03-17T14:48:24.550Z,68.94
2023-03-17T14:50:55.122Z,68.33
2023-03-17T14:53:26.459Z,69.38
2023-03-17T14:55:57.348Z,69.09
2023-03-17T14:58:28.548Z,68.47
2023-03-17T15:00:59.257Z,69.42
2023-03-17T15:03:31.838Z,70.33
2023-03-17T15:06:24.218Z,70.43
2023-03-17T15:08:54.582Z,71.46
2023-03-17T15:11:28.217Z,72.02
2023-03-17T15:14:04.910Z,70.35
2023-03-17T15:16:36.203Z,71.38
2023-03-17T15:19:07.894Z,72.03
2023-03-17T15:21:41.070Z,71.36
2023-03-17T15:24:26.463Z,71.67
2023-03-17T15:27:02.046Z,72.62
2023-03-17T15:29:31.064Z,72.78
2023-03-17T15:32:10.413Z,72.84
2023-03-17T15:34:38.373Z,72.27
2023-03-17T15:37:15.457Z,71.90
2023-03-17T15:39:44.887Z,72.37
2023-03-17T15:42:12.850Z,73.05
2023-03-17T15:44:41.296Z,72.33
2023-03-17T15:47:14.269Z,73.12
2023-03-17T15:49:42.235Z,73.35
2023-03-17T15:52:16.522Z,74.33
2023-03-17T15:54:46.283Z,74.16
2023-03-17T15:57:14.878Z,74.37
2023-03-17T15:59:42.839Z,74.24
2023-03-17T16:02:25.893Z,74.92
2023-03-17T16:04:54.375Z,74.77
2023-03-17T16:07:23.303Z,75.29
2023-03-17T16:09:52.564Z,76.18
2023-03-17T16:12:21.247Z,75.11
2023-03-17T16:14:49.167Z,74.11
2023-03-17T16:17:25.260Z,73.05
2023-03-17T16:19:54.432Z,73.99
2023-03-17T16:22:39.039Z,73.14
2023-03-17T16:25:19.914Z,74.06
2023-03-17T16:27:48.210Z,74.33
2023-03-17T16:30:18.396Z,74.35
2023-03-17T16:32:46.345Z,74.28
2023-03-17T16:35:19.282Z,74.81
2023-03-17T16:37:47.551Z,75.15
2023-03-17T16:40:22.511Z,75.93
2023-03-17T16:42:50.491Z,76.16
2023-03-17T16:45:23.664Z,76.14
2023-03-17T16:47:51.644Z,76.50
2023-03-17T16:50:21.605Z,77.31
2023-03-17T16:52:49.554Z,77.21
2023-03-17T16:55:26.475Z,78.07
2023-03-17T16:57:59.030Z,78.93
2023-03-17T17:00:30.609Z,79.22
2023-03-17T17:02:59.468Z,79.72
2023-03-17T17:05:30.082Z,80.20
2023-03-17T17:07:59.147Z,80.58
2023-03-17T17:10:29.488Z,81.09
2023-03-17T17:13:00.292Z,81.52
2023-03-17T17:15:30.520Z,81.65
2023-03-17T17:18:02.231Z,82.86
2023-03-17T17:20:32.752Z,83.86
2023-03-17T17:23:02.473Z,84.37
2023-03-17T17:25:31.455Z,84.77
2023-03-17T17:28:01.407Z,84.63
2023-03-17T17:30:31.458Z,85.08
2023-03-17T17:33:02.466Z,85.50
2023-03-17T17:35:33.151Z,85.84
2023-03-17T17:38:01.682Z,86.31
2023-03-17T17:40:30.858Z,86.98
2023-03-17T17:43:00.745Z,87.56
2023-03-17T17:45:28.581Z,87.96
2023-03-17T17:47:56.534Z,87.91
2023-03-17T17:50:26.625Z,87.99
2023-03-17T17:53:02.735Z,88.19
2023-03-17T17:55:35.418Z,88.93
2023-03-17T17:58:08.302Z,88.76
2023-03-17T18:00:45.280Z,89.57
2023-03-17T18:03:13.699Z,89.57
2023-03-17T18:05:41.740Z,89.61
2023-03-17T18:08:09.744Z,90.10
2023-03-17T18:10:38.272Z,90.52
2023-03-17T18:13:09.981Z,91.22
2023-03-17T18:15:45.896Z,91.06
2023-03-17T18:18:15.804Z,91.43
2023-03-17T18:20:46.070Z,91.85
2023-03-17T18:23:16.515Z,92.18
2023-03-17T18:25:45.108Z,92.62
2023-03-17T18:28:17.541Z,93.16
2023-03-17T18:30:47.832Z,93.87
2023-03-17T18:33:19.795Z,94.25
2023-03-17T18:35:49.917Z,94.08
2023-03-17T18:38:17.997Z,95.02
2023-03-17T18:40:46.357Z,95.71
2023-03-17T18:43:15.900Z,95.48
2023-03-17T18:45:44.646Z,96.48
2023-03-17T18:48:12.620Z,96.46
2023-03-17T18:50:40.540Z,96.60
2023-03-17T18:53:12.257Z,96.77
2023-03-17T18:55:41.272Z,97.31
2023-03-17T18:58:09.550Z,97.10
2023-03-17T19:00:44.600Z,97.22
2023-03-17T19:03:12.908Z,97.41
2023-03-17T19:05:41.846Z,97.40
2023-03-17T19:08:11.625Z,98.13
2023-03-17T19:10:43.466Z,99.26
2023-03-17T19:13:12.290Z,99.79
2023-03-17T19:15:44.458Z,100.00
2023-03-17T19:18:16.361Z,100.00
2023-03-17T19:20:45.429Z,100.00
2023-03-17T19:23:18.849Z,100.00
2023-03-17T19:25:52.756Z,100.00
2023-03-17T19:28:29.584Z,100.00
2023-03-17T19:31:00.214Z,100.00
2023-03-17T19:33:29.554Z,100.00
2023-03-17T19:36:00.132Z,100.00
2023-03-17T19:38:28.515Z,100.00
2023-03-17T19:40:56.723Z,100.00
2023-03-17T19:43:39.413Z,100.00
2023-03-17T19:46:14.201Z,100.00
2023-03-17T19:48:42.213Z,100.00
2023-03-17T19:51:13.794Z,100.00
2023-03-17T19:53:41.748Z,100.00
2023-03-17T19:56:10.935Z,100.00
2023-03-17T19:58:39.520Z,100.00
2023-03-17T20:01:10.437Z,100.00
2023-03-17T20:03:42.763Z,100.00
2023-03-17T20:06:12.067Z,100.00
2023-03-17T20:08:40.756Z,100.00
2023-03-17T20:11:10.732Z,100.00
2023-03-17T20:13:38.848Z,100.00
2023-03-17T20:16:08.222Z,100.00
2023-03-17T20:18:40.901Z,100.00
2023-03-17T20:21:14.230Z,100.00
2023-03-17T20:23:42.275Z,100.00
2023-03-17T20:26:11.611Z,100.00
2023-03-17T20:28:42.529Z,100.00
2023-03-17T20:31:10.828Z,100.00
2023-03-17T20:33:43.224Z,100.00
2023-03-17T20:36:12.836Z,100.00
2023-03-17T20:38:43.126Z,100.00
2023-03-17T20:41:14.235Z,100.00
2023-03-17T20:43:48.242Z,100.00
2023-03-17T20:46:28.879Z,100.00
2023-03-17T20:49:01.795Z,100.00
2023-03-17T20:51:30.066Z,100.00
2023-03-17T20:54:03.237Z,100.00
2023-03-17T20:56:33.831Z,100.00
2023-03-17T20:59:05.210Z,100.00
2023-03-17T21:01:36.683Z,100.00
2023-03-17T21:04:12.041Z,100.00
2023-03-17T21:06:41.549Z,100.00
2023-03-17T21:09:10.807Z,100.00
2023-03-17T21:11:39.164Z,100.00
2023-03-17T21:14:08.052Z,100.00
2023-03-17T21:16:38.447Z,100.00
2023-03-17T21:19:09.748Z,100.00
2023-03-17T21:21:40.474Z,100.00
2023-03-17T21:24:10.143Z,100.00
2023-03-17T21:26:40.471Z,100.00
2023-03-17T21:29:10.373Z,100.00
2023-03-17T21:31:43.272Z,100.00
2023-03-17T21:34:20.596Z,100.00
2023-03-17T21:36:51.352Z,100.00
2023-03-17T21:39:20.998Z,100.00
2023-03-17T21:41:50.981Z,100.00
2023-03-17T21:44:30.985Z,100.00
2023-03-17T21:47:03.437Z,100.00
2023-03-17T21:49:34.688Z,100.00
2023-03-17T21:52:12.591Z,100.00
2023-03-17T21:54:42.804Z,100.00
2023-03-17T21:57:11.897Z,100.00
2023-03-17T21:59:42.710Z,100.00
2023-03-17T22:02:14.682Z,100.00
2023-03-17T22:04:56.042Z,100.00
2023-03-17T22:07:24.810Z,100.00
2023-03-17T22:09:59.883Z,100.00
2023-03-17T22:12:32.136Z,100.00
2023-03-17T22:15:00.361Z,100.00
2023-03-17T22:17:30.977Z,100.00
2023-03-17T22:20:01.343Z,100.00
2023-03-17T22:22:35.857Z,100.00
2023-03-17T22:25:10.230Z,100.00
2023-03-17T22:28:00.110Z,100.00
2023-03-17T22:33:25.823Z,100.00
2023-03-17T22:36:06.020Z,100.00
2023-03-17T22:38:51.851Z,100.00
2023-03-17T22:44:24.012Z,100.00
2023-03-17T22:47:01.182Z,100.00
2023-03-17T22:49:57.826Z,100.00
2023-03-17T22:52:44.742Z,100.00
2023-03-17T22:55:16.064Z,100.00
2023-03-17T23:00:39.609Z,100.00
2023-03-17T23:03:14.664Z,100.00
2023-03-17T23:05:57.671Z,100.00
2023-03-17T23:08:39.771Z,100.00
2023-03-17T23:11:13.765Z,100.00
2023-03-17T23:13:50.605Z,100.00
2023-03-17T23:16:19.096Z,100.00
2023-03-17T23:18:49.473Z,100.00
2023-03-17T23:21:28.180Z,100.00
2023-03-17T23:24:20.823Z,100.00
2023-03-17T23:27:04.685Z,100.00
2023-03-17T23:29:41.287Z,100.00
2023-03-17T23:32:17.609Z,100.00
2023-03-17T23:34:48.342Z,100.00
2023-03-17T23:37:17.186Z,100.00
2023-03-17T23:40:07.567Z,100.00
2023-03-17T23:42:38.464Z,100.00
2023-03-17T23:48:12.018Z,100.00
2023-03-17T23:50:41.532Z,100.00
2023-03-17T23:53:10.093Z,100.00
2023-03-17T23:55:58.181Z,100.00
2023-03-17T23:58:27.045Z,100.00
